sensor_id;sensor_type;location;lat;lon;timestamp;pressure;altitude;pressure_sealevel;temperature
20730;BMP280;10526;50.850;12.928;2023-08-17T00:03:27;98196.97;;;19.84
20730;BMP280;10526;50.850;12.928;2023-08-17T00:07:49;98197.72;;;19.84
20730;BMP280;10526;50.850;12.928;2023-08-17T00:12:11;98207.47;;;19.91
20730;BMP280;10526;50.850;12.928;2023-08-17T00:16:33;98201.91;;;19.94
20730;BMP280;10526;50.850;12.928;2023-08-17T00:20:55;98212.88;;;19.91
20730;BMP280;10526;50.850;12.928;2023-08-17T00:25:17;98215.75;;;19.78
20730;BMP280;10526;50.850;12.928;2023-08-17T00:29:39;98224.63;;;19.69
20730;BMP280;10526;50.850;12.928;2023-08-17T00:34:02;98222.81;;;19.57
20730;BMP280;10526;50.850;12.928;2023-08-17T00:38:25;98201.97;;;19.49
20730;BMP280;10526;50.850;12.928;2023-08-17T00:42:47;98197.78;;;19.48
20730;BMP280;10526;50.850;12.928;2023-08-17T00:47:11;98203.31;;;19.44
20730;BMP280;10526;50.850;12.928;2023-08-17T00:51:33;98192.06;;;19.36
20730;BMP280;10526;50.850;12.928;2023-08-17T00:55:56;98184.00;;;19.27
20730;BMP280;10526;50.850;12.928;2023-08-17T01:00:18;98174.09;;;19.15
20730;BMP280;10526;50.850;12.928;2023-08-17T01:04:41;98167.94;;;19.05
20730;BMP280;10526;50.850;12.928;2023-08-17T01:09:05;98158.19;;;18.99
20730;BMP280;10526;50.850;12.928;2023-08-17T01:19:27;98139.59;;;18.82
20730;BMP280;10526;50.850;12.928;2023-08-17T01:23:50;98139.91;;;18.75
20730;BMP280;10526;50.850;12.928;2023-08-17T01:28:12;98136.75;;;18.68
20730;BMP280;10526;50.850;12.928;2023-08-17T01:32:53;98133.75;;;18.66
20730;BMP280;10526;50.850;12.928;2023-08-17T01:37:19;98143.19;;;18.61
20730;BMP280;10526;50.850;12.928;2023-08-17T01:41:43;98153.03;;;18.55
20730;BMP280;10526;50.850;12.928;2023-08-17T01:46:07;98153.31;;;18.48
20730;BMP280;10526;50.850;12.928;2023-08-17T01:50:29;98161.41;;;18.48
20730;BMP280;10526;50.850;12.928;2023-08-17T01:54:51;98163.81;;;18.46
20730;BMP280;10526;50.850;12.928;2023-08-17T01:59:13;98167.28;;;18.46
20730;BMP280;10526;50.850;12.928;2023-08-17T02:03:35;98179.09;;;18.49
20730;BMP280;10526;50.850;12.928;2023-08-17T02:07:57;98174.00;;;18.51
20730;BMP280;10526;50.850;12.928;2023-08-17T02:12:22;98185.84;;;18.53
20730;BMP280;10526;50.850;12.928;2023-08-17T02:16:44;98197.09;;;18.52
20730;BMP280;10526;50.850;12.928;2023-08-17T02:21:06;98214.47;;;18.51
20730;BMP280;10526;50.850;12.928;2023-08-17T02:25:28;98203.06;;;18.47
20730;BMP280;10526;50.850;12.928;2023-08-17T02:29:57;98192.00;;;18.45
20730;BMP280;10526;50.850;12.928;2023-08-17T02:34:19;98192.13;;;18.41
20730;BMP280;10526;50.850;12.928;2023-08-17T02:38:41;98186.13;;;18.37
20730;BMP280;10526;50.850;12.928;2023-08-17T02:43:03;98182.03;;;18.33
20730;BMP280;10526;50.850;12.928;2023-08-17T02:47:25;98187.88;;;18.31
20730;BMP280;10526;50.850;12.928;2023-08-17T02:51:47;98180.81;;;18.25
20730;BMP280;10526;50.850;12.928;2023-08-17T02:56:09;98180.31;;;18.17
20730;BMP280;10526;50.850;12.928;2023-08-17T03:00:34;98180.78;;;18.15
20730;BMP280;10526;50.850;12.928;2023-08-17T03:04:56;98176.41;;;18.09
20730;BMP280;10526;50.850;12.928;2023-08-17T03:09:18;98176.84;;;18.07
20730;BMP280;10526;50.850;12.928;2023-08-17T03:13:41;98208.63;;;18.12
20730;BMP280;10526;50.850;12.928;2023-08-17T03:18:03;98218.28;;;18.23
20730;BMP280;10526;50.850;12.928;2023-08-17T03:22:26;98207.34;;;18.26
20730;BMP280;10526;50.850;12.928;2023-08-17T03:26:48;98230.28;;;18.31
20730;BMP280;10526;50.850;12.928;2023-08-17T03:31:11;98218.50;;;18.37
20730;BMP280;10526;50.850;12.928;2023-08-17T03:35:32;98246.06;;;18.41
20730;BMP280;10526;50.850;12.928;2023-08-17T03:39:55;98236.63;;;18.46
20730;BMP280;10526;50.850;12.928;2023-08-17T03:44:17;98244.91;;;18.51
20730;BMP280;10526;50.850;12.928;2023-08-17T03:48:39;98262.34;;;18.69
20730;BMP280;10526;50.850;12.928;2023-08-17T03:53:01;98263.16;;;18.88
20730;BMP280;10526;50.850;12.928;2023-08-17T03:57:24;98269.03;;;19.04
20730;BMP280;10526;50.850;12.928;2023-08-17T04:01:46;98269.97;;;19.20
20730;BMP280;10526;50.850;12.928;2023-08-17T04:06:09;98260.34;;;19.28
20730;BMP280;10526;50.850;12.928;2023-08-17T04:10:34;98270.84;;;19.35
20730;BMP280;10526;50.850;12.928;2023-08-17T04:14:56;98270.44;;;19.45
20730;BMP280;10526;50.850;12.928;2023-08-17T04:19:18;98267.72;;;19.55
20730;BMP280;10526;50.850;12.928;2023-08-17T04:23:40;98276.00;;;19.60
20730;BMP280;10526;50.850;12.928;2023-08-17T04:28:03;98281.53;;;19.66
20730;BMP280;10526;50.850;12.928;2023-08-17T04:32:26;98283.34;;;19.69
20730;BMP280;10526;50.850;12.928;2023-08-17T04:36:48;98278.81;;;19.75
20730;BMP280;10526;50.850;12.928;2023-08-17T04:41:10;98284.78;;;19.88
20730;BMP280;10526;50.850;12.928;2023-08-17T04:45:32;98291.25;;;20.00
20730;BMP280;10526;50.850;12.928;2023-08-17T04:49:54;98303.09;;;20.12
20730;BMP280;10526;50.850;12.928;2023-08-17T04:54:17;98297.69;;;20.12
20730;BMP280;10526;50.850;12.928;2023-08-17T04:58:38;98296.47;;;20.13
20730;BMP280;10526;50.850;12.928;2023-08-17T05:03:00;98302.47;;;20.17
20730;BMP280;10526;50.850;12.928;2023-08-17T05:07:28;98302.75;;;20.19
20730;BMP280;10526;50.850;12.928;2023-08-17T05:11:50;98310.25;;;20.24
20730;BMP280;10526;50.850;12.928;2023-08-17T05:16:12;98304.25;;;20.29
20730;BMP280;10526;50.850;12.928;2023-08-17T05:20:34;98291.84;;;20.46
20730;BMP280;10526;50.850;12.928;2023-08-17T05:24:56;98282.47;;;20.89
20730;BMP280;10526;50.850;12.928;2023-08-17T05:29:18;98285.53;;;21.45
20730;BMP280;10526;50.850;12.928;2023-08-17T05:33:41;98286.06;;;21.87
20730;BMP280;10526;50.850;12.928;2023-08-17T05:38:03;98293.53;;;22.07
20730;BMP280;10526;50.850;12.928;2023-08-17T05:42:25;98287.72;;;22.14
20730;BMP280;10526;50.850;12.928;2023-08-17T05:46:47;98291.84;;;22.10
20730;BMP280;10526;50.850;12.928;2023-08-17T05:51:10;98283.13;;;22.20
20730;BMP280;10526;50.850;12.928;2023-08-17T05:55:32;98278.66;;;21.88
20730;BMP280;10526;50.850;12.928;2023-08-17T05:59:54;98279.75;;;21.52
20730;BMP280;10526;50.850;12.928;2023-08-17T06:04:16;98273.09;;;21.38
20730;BMP280;10526;50.850;12.928;2023-08-17T06:08:38;98277.59;;;21.56
20730;BMP280;10526;50.850;12.928;2023-08-17T06:13:00;98258.47;;;21.74
20730;BMP280;10526;50.850;12.928;2023-08-17T06:17:22;98266.00;;;21.99
20730;BMP280;10526;50.850;12.928;2023-08-17T06:21:45;98253.53;;;22.37
20730;BMP280;10526;50.850;12.928;2023-08-17T06:26:08;98263.34;;;22.90
20730;BMP280;10526;50.850;12.928;2023-08-17T06:30:30;98254.28;;;23.45
20730;BMP280;10526;50.850;12.928;2023-08-17T06:34:52;98248.16;;;24.13
20730;BMP280;10526;50.850;12.928;2023-08-17T06:39:15;98244.00;;;24.77
20730;BMP280;10526;50.850;12.928;2023-08-17T06:43:37;98249.81;;;25.23
20730;BMP280;10526;50.850;12.928;2023-08-17T06:47:59;98228.72;;;25.74
20730;BMP280;10526;50.850;12.928;2023-08-17T06:52:21;98248.75;;;28.23
20730;BMP280;10526;50.850;12.928;2023-08-17T06:56:43;98241.31;;;29.57
20730;BMP280;10526;50.850;12.928;2023-08-17T07:01:08;98237.69;;;27.67
20730;BMP280;10526;50.850;12.928;2023-08-17T07:05:30;98239.19;;;27.03
20730;BMP280;10526;50.850;12.928;2023-08-17T07:09:52;98236.25;;;26.48
20730;BMP280;10526;50.850;12.928;2023-08-17T07:14:14;98234.97;;;25.69
20730;BMP280;10526;50.850;12.928;2023-08-17T07:18:36;98253.81;;;25.39
20730;BMP280;10526;50.850;12.928;2023-08-17T07:22:58;98238.91;;;25.29
20730;BMP280;10526;50.850;12.928;2023-08-17T07:27:20;98242.16;;;25.39
20730;BMP280;10526;50.850;12.928;2023-08-17T07:31:42;98232.47;;;25.32
20730;BMP280;10526;50.850;12.928;2023-08-17T07:36:05;98241.13;;;25.19
20730;BMP280;10526;50.850;12.928;2023-08-17T07:40:27;98255.03;;;25.44
20730;BMP280;10526;50.850;12.928;2023-08-17T07:44:49;98246.22;;;26.35
20730;BMP280;10526;50.850;12.928;2023-08-17T07:49:11;98256.78;;;28.40
20730;BMP280;10526;50.850;12.928;2023-08-17T07:53:51;98256.56;;;31.77
20730;BMP280;10526;50.850;12.928;2023-08-17T07:58:13;98261.13;;;32.69
20730;BMP280;10526;50.850;12.928;2023-08-17T08:02:35;98260.25;;;32.82
20730;BMP280;10526;50.850;12.928;2023-08-17T08:06:57;98247.72;;;32.07
20730;BMP280;10526;50.850;12.928;2023-08-17T08:11:22;98257.59;;;31.66
20730;BMP280;10526;50.850;12.928;2023-08-17T08:15:44;98246.50;;;31.02
20730;BMP280;10526;50.850;12.928;2023-08-17T08:20:07;98245.13;;;31.65
20730;BMP280;10526;50.850;12.928;2023-08-17T08:24:29;98248.22;;;33.48
20730;BMP280;10526;50.850;12.928;2023-08-17T08:28:59;98248.31;;;37.86
20730;BMP280;10526;50.850;12.928;2023-08-17T08:33:20;98247.31;;;40.54
20730;BMP280;10526;50.850;12.928;2023-08-17T08:37:43;98254.03;;;42.58
20730;BMP280;10526;50.850;12.928;2023-08-17T08:42:05;98246.59;;;42.21
20730;BMP280;10526;50.850;12.928;2023-08-17T08:46:30;98245.19;;;42.63
20730;BMP280;10526;50.850;12.928;2023-08-17T08:50:55;98238.84;;;42.63
20730;BMP280;10526;50.850;12.928;2023-08-17T08:55:23;98239.84;;;42.54
20730;BMP280;10526;50.850;12.928;2023-08-17T08:59:47;98241.53;;;43.19
20730;BMP280;10526;50.850;12.928;2023-08-17T09:04:09;98257.44;;;44.60
20730;BMP280;10526;50.850;12.928;2023-08-17T09:08:32;98247.13;;;44.31
20730;BMP280;10526;50.850;12.928;2023-08-17T09:12:55;98232.50;;;40.89
20730;BMP280;10526;50.850;12.928;2023-08-17T09:17:27;98227.78;;;38.32
20730;BMP280;10526;50.850;12.928;2023-08-17T09:21:48;98209.88;;;36.77
20730;BMP280;10526;50.850;12.928;2023-08-17T09:26:12;98205.84;;;34.25
20730;BMP280;10526;50.850;12.928;2023-08-17T09:30:48;98217.69;;;33.23
20730;BMP280;10526;50.850;12.928;2023-08-17T09:35:10;98203.84;;;33.93
20730;BMP280;10526;50.850;12.928;2023-08-17T09:39:34;98216.75;;;33.91
20730;BMP280;10526;50.850;12.928;2023-08-17T09:43:56;98209.78;;;34.47
20730;BMP280;10526;50.850;12.928;2023-08-17T09:48:19;98208.41;;;36.20
20730;BMP280;10526;50.850;12.928;2023-08-17T09:52:41;98201.84;;;37.98
20730;BMP280;10526;50.850;12.928;2023-08-17T09:57:03;98210.16;;;41.14
20730;BMP280;10526;50.850;12.928;2023-08-17T10:01:28;98207.28;;;42.19
20730;BMP280;10526;50.850;12.928;2023-08-17T10:05:59;98208.81;;;43.24
20730;BMP280;10526;50.850;12.928;2023-08-17T10:10:27;98200.22;;;42.32
20730;BMP280;10526;50.850;12.928;2023-08-17T10:15:05;98203.41;;;39.50
20730;BMP280;10526;50.850;12.928;2023-08-17T10:19:46;98187.88;;;37.77
20730;BMP280;10526;50.850;12.928;2023-08-17T10:24:14;98196.16;;;37.27
20730;BMP280;10526;50.850;12.928;2023-08-17T10:28:36;98194.72;;;36.97
20730;BMP280;10526;50.850;12.928;2023-08-17T10:32:59;98188.25;;;36.85
20730;BMP280;10526;50.850;12.928;2023-08-17T10:37:23;98183.63;;;35.69
20730;BMP280;10526;50.850;12.928;2023-08-17T10:41:47;98184.94;;;34.40
20730;BMP280;10526;50.850;12.928;2023-08-17T10:46:16;98194.03;;;34.00
20730;BMP280;10526;50.850;12.928;2023-08-17T10:50:39;98191.22;;;35.68
20730;BMP280;10526;50.850;12.928;2023-08-17T10:55:07;98185.44;;;38.03
20730;BMP280;10526;50.850;12.928;2023-08-17T10:59:31;98192.53;;;38.89
20730;BMP280;10526;50.850;12.928;2023-08-17T11:04:16;98178.00;;;39.79
20730;BMP280;10526;50.850;12.928;2023-08-17T11:13:36;98179.88;;;40.23
20730;BMP280;10526;50.850;12.928;2023-08-17T11:17:58;98170.69;;;39.97
20730;BMP280;10526;50.850;12.928;2023-08-17T11:22:20;98174.56;;;38.37
20730;BMP280;10526;50.850;12.928;2023-08-17T11:26:46;98161.97;;;36.86
20730;BMP280;10526;50.850;12.928;2023-08-17T11:31:11;98162.06;;;36.04
20730;BMP280;10526;50.850;12.928;2023-08-17T11:35:34;98155.94;;;36.05
20730;BMP280;10526;50.850;12.928;2023-08-17T11:39:56;98155.22;;;34.40
20730;BMP280;10526;50.850;12.928;2023-08-17T11:44:19;98147.16;;;33.37
20730;BMP280;10526;50.850;12.928;2023-08-17T11:48:45;98137.59;;;33.31
20730;BMP280;10526;50.850;12.928;2023-08-17T11:53:07;98137.69;;;32.70
20730;BMP280;10526;50.850;12.928;2023-08-17T11:57:30;98142.19;;;31.84
20730;BMP280;10526;50.850;12.928;2023-08-17T12:01:51;98126.22;;;31.90
20730;BMP280;10526;50.850;12.928;2023-08-17T12:06:16;98116.53;;;32.19
20730;BMP280;10526;50.850;12.928;2023-08-17T12:10:38;98109.38;;;32.31
20730;BMP280;10526;50.850;12.928;2023-08-17T12:15:00;98112.88;;;32.17
20730;BMP280;10526;50.850;12.928;2023-08-17T12:19:25;98120.78;;;32.35
20730;BMP280;10526;50.850;12.928;2023-08-17T12:23:47;98111.06;;;32.57
20730;BMP280;10526;50.850;12.928;2023-08-17T12:28:12;98109.78;;;32.51
20730;BMP280;10526;50.850;12.928;2023-08-17T12:32:34;98110.66;;;32.76
20730;BMP280;10526;50.850;12.928;2023-08-17T12:36:56;98107.75;;;32.66
20730;BMP280;10526;50.850;12.928;2023-08-17T12:41:18;98114.56;;;32.50
20730;BMP280;10526;50.850;12.928;2023-08-17T12:45:41;98108.84;;;32.63
20730;BMP280;10526;50.850;12.928;2023-08-17T12:50:04;98097.44;;;32.82
20730;BMP280;10526;50.850;12.928;2023-08-17T12:54:25;98094.88;;;32.46
20730;BMP280;10526;50.850;12.928;2023-08-17T12:58:48;98115.09;;;32.18
20730;BMP280;10526;50.850;12.928;2023-08-17T13:03:10;98101.22;;;31.29
20730;BMP280;10526;50.850;12.928;2023-08-17T13:07:34;98098.31;;;30.15
20730;BMP280;10526;50.850;12.928;2023-08-17T13:11:56;98104.25;;;29.59
20730;BMP280;10526;50.850;12.928;2023-08-17T13:16:19;98103.28;;;29.57
20730;BMP280;10526;50.850;12.928;2023-08-17T13:20:41;98098.69;;;29.25
20730;BMP280;10526;50.850;12.928;2023-08-17T13:25:03;98102.69;;;29.24
20730;BMP280;10526;50.850;12.928;2023-08-17T13:29:25;98076.72;;;29.25
20730;BMP280;10526;50.850;12.928;2023-08-17T13:33:47;98085.38;;;29.29
20730;BMP280;10526;50.850;12.928;2023-08-17T13:38:10;98093.41;;;29.27
20730;BMP280;10526;50.850;12.928;2023-08-17T13:42:31;98096.38;;;29.42
20730;BMP280;10526;50.850;12.928;2023-08-17T13:46:53;98084.66;;;29.42
20730;BMP280;10526;50.850;12.928;2023-08-17T13:51:15;98067.41;;;29.55
20730;BMP280;10526;50.850;12.928;2023-08-17T13:55:37;98043.31;;;29.61
20730;BMP280;10526;50.850;12.928;2023-08-17T14:00:00;98030.97;;;29.67
20730;BMP280;10526;50.850;12.928;2023-08-17T14:04:22;98025.72;;;29.90
20730;BMP280;10526;50.850;12.928;2023-08-17T14:08:44;98029.09;;;29.96
20730;BMP280;10526;50.850;12.928;2023-08-17T14:13:06;98033.84;;;30.16
20730;BMP280;10526;50.850;12.928;2023-08-17T14:17:29;98058.06;;;30.67
20730;BMP280;10526;50.850;12.928;2023-08-17T14:21:51;98082.75;;;30.80
20730;BMP280;10526;50.850;12.928;2023-08-17T14:26:14;98087.81;;;30.27
20730;BMP280;10526;50.850;12.928;2023-08-17T14:30:39;98072.59;;;30.26
20730;BMP280;10526;50.850;12.928;2023-08-17T14:35:00;98062.31;;;30.47
20730;BMP280;10526;50.850;12.928;2023-08-17T14:39:22;98066.69;;;29.88
20730;BMP280;10526;50.850;12.928;2023-08-17T14:43:44;98071.34;;;29.33
20730;BMP280;10526;50.850;12.928;2023-08-17T14:48:07;98061.66;;;29.05
20730;BMP280;10526;50.850;12.928;2023-08-17T14:52:29;98071.75;;;28.97
20730;BMP280;10526;50.850;12.928;2023-08-17T14:57:00;98080.72;;;28.98
20730;BMP280;10526;50.850;12.928;2023-08-17T15:01:27;98067.19;;;28.73
20730;BMP280;10526;50.850;12.928;2023-08-17T15:05:49;98076.66;;;28.59
20730;BMP280;10526;50.850;12.928;2023-08-17T15:10:12;98082.16;;;28.72
20730;BMP280;10526;50.850;12.928;2023-08-17T15:14:34;98094.31;;;28.77
20730;BMP280;10526;50.850;12.928;2023-08-17T15:18:56;98088.81;;;28.77
20730;BMP280;10526;50.850;12.928;2023-08-17T15:23:18;98094.09;;;28.75
20730;BMP280;10526;50.850;12.928;2023-08-17T15:27:40;98093.94;;;28.67
20730;BMP280;10526;50.850;12.928;2023-08-17T15:32:02;98093.22;;;28.67
20730;BMP280;10526;50.850;12.928;2023-08-17T15:36:24;98096.44;;;28.52
20730;BMP280;10526;50.850;12.928;2023-08-17T15:40:48;98095.53;;;28.12
20730;BMP280;10526;50.850;12.928;2023-08-17T15:45:10;98090.34;;;27.71
20730;BMP280;10526;50.850;12.928;2023-08-17T15:49:32;98090.34;;;27.47
20730;BMP280;10526;50.850;12.928;2023-08-17T15:53:54;98087.84;;;27.24
20730;BMP280;10526;50.850;12.928;2023-08-17T15:58:16;98079.03;;;27.13
20730;BMP280;10526;50.850;12.928;2023-08-17T16:02:38;98081.88;;;27.02
20730;BMP280;10526;50.850;12.928;2023-08-17T16:07:01;98076.34;;;26.77
20730;BMP280;10526;50.850;12.928;2023-08-17T16:11:23;98081.28;;;26.49
20730;BMP280;10526;50.850;12.928;2023-08-17T16:15:45;98083.84;;;26.36
20730;BMP280;10526;50.850;12.928;2023-08-17T16:20:13;98086.16;;;26.26
20730;BMP280;10526;50.850;12.928;2023-08-17T16:24:35;98087.91;;;26.18
20730;BMP280;10526;50.850;12.928;2023-08-17T16:28:57;98078.25;;;26.17
20730;BMP280;10526;50.850;12.928;2023-08-17T16:33:19;98083.78;;;26.06
20730;BMP280;10526;50.850;12.928;2023-08-17T16:37:43;98075.19;;;25.74
20730;BMP280;10526;50.850;12.928;2023-08-17T16:42:06;98071.56;;;25.49
20730;BMP280;10526;50.850;12.928;2023-08-17T16:46:28;98063.91;;;25.31
20730;BMP280;10526;50.850;12.928;2023-08-17T16:50:50;98061.69;;;25.23
20730;BMP280;10526;50.850;12.928;2023-08-17T16:55:12;98068.38;;;25.17
20730;BMP280;10526;50.850;12.928;2023-08-17T16:59:34;98073.59;;;25.09
20730;BMP280;10526;50.850;12.928;2023-08-17T17:03:56;98070.88;;;25.09
20730;BMP280;10526;50.850;12.928;2023-08-17T17:08:18;98080.56;;;25.10
20730;BMP280;10526;50.850;12.928;2023-08-17T17:12:40;98085.47;;;25.06
20730;BMP280;10526;50.850;12.928;2023-08-17T17:17:02;98088.97;;;25.01
20730;BMP280;10526;50.850;12.928;2023-08-17T17:21:24;98091.94;;;24.92
20730;BMP280;10526;50.850;12.928;2023-08-17T17:25:46;98100.13;;;24.81
20730;BMP280;10526;50.850;12.928;2023-08-17T17:30:09;98109.25;;;24.78
20730;BMP280;10526;50.850;12.928;2023-08-17T17:34:31;98122.13;;;24.72
20730;BMP280;10526;50.850;12.928;2023-08-17T17:38:53;98126.56;;;24.64
20730;BMP280;10526;50.850;12.928;2023-08-17T17:43:15;98133.97;;;24.52
20730;BMP280;10526;50.850;12.928;2023-08-17T17:47:38;98127.78;;;24.51
20730;BMP280;10526;50.850;12.928;2023-08-17T17:52:00;98128.03;;;24.48
20730;BMP280;10526;50.850;12.928;2023-08-17T17:56:44;98127.75;;;24.40
20730;BMP280;10526;50.850;12.928;2023-08-17T18:01:06;98131.41;;;24.26
20730;BMP280;10526;50.850;12.928;2023-08-17T18:05:29;98122.97;;;24.13
20730;BMP280;10526;50.850;12.928;2023-08-17T18:09:51;98130.03;;;23.93
20730;BMP280;10526;50.850;12.928;2023-08-17T18:14:14;98131.94;;;23.82
20730;BMP280;10526;50.850;12.928;2023-08-17T18:18:36;98129.16;;;23.71
20730;BMP280;10526;50.850;12.928;2023-08-17T18:22:59;98123.41;;;23.57
20730;BMP280;10526;50.850;12.928;2023-08-17T18:27:20;98125.03;;;23.49
20730;BMP280;10526;50.850;12.928;2023-08-17T18:31:43;98125.78;;;23.44
20730;BMP280;10526;50.850;12.928;2023-08-17T18:36:05;98129.94;;;23.40
20730;BMP280;10526;50.850;12.928;2023-08-17T18:40:27;98131.84;;;23.34
20730;BMP280;10526;50.850;12.928;2023-08-17T18:44:49;98139.22;;;23.27
20730;BMP280;10526;50.850;12.928;2023-08-17T18:49:12;98147.34;;;23.22
20730;BMP280;10526;50.850;12.928;2023-08-17T18:53:34;98155.16;;;23.14
20730;BMP280;10526;50.850;12.928;2023-08-17T18:57:56;98153.69;;;23.13
20730;BMP280;10526;50.850;12.928;2023-08-17T19:02:18;98159.34;;;23.10
20730;BMP280;10526;50.850;12.928;2023-08-17T19:06:40;98174.09;;;23.03
20730;BMP280;10526;50.850;12.928;2023-08-17T19:11:02;98183.66;;;22.99
20730;BMP280;10526;50.850;12.928;2023-08-17T19:15:24;98199.84;;;22.87
20730;BMP280;10526;50.850;12.928;2023-08-17T19:19:46;98225.19;;;22.79
20730;BMP280;10526;50.850;12.928;2023-08-17T19:24:08;98216.16;;;22.67
20730;BMP280;10526;50.850;12.928;2023-08-17T19:28:30;98230.94;;;22.66
20730;BMP280;10526;50.850;12.928;2023-08-17T19:32:57;98225.59;;;22.72
20730;BMP280;10526;50.850;12.928;2023-08-17T19:37:20;98207.41;;;22.78
20730;BMP280;10526;50.850;12.928;2023-08-17T19:41:42;98217.31;;;22.81
20730;BMP280;10526;50.850;12.928;2023-08-17T19:46:06;98206.44;;;22.81
20730;BMP280;10526;50.850;12.928;2023-08-17T19:50:28;98192.88;;;22.81
20730;BMP280;10526;50.850;12.928;2023-08-17T19:54:50;98177.47;;;22.72
20730;BMP280;10526;50.850;12.928;2023-08-17T19:59:14;98173.38;;;22.62
20730;BMP280;10526;50.850;12.928;2023-08-17T20:03:36;98174.53;;;22.55
20730;BMP280;10526;50.850;12.928;2023-08-17T20:07:58;98171.50;;;22.48
20730;BMP280;10526;50.850;12.928;2023-08-17T20:12:21;98162.06;;;22.43
20730;BMP280;10526;50.850;12.928;2023-08-17T20:16:43;98160.75;;;22.39
20730;BMP280;10526;50.850;12.928;2023-08-17T20:21:06;98167.81;;;22.30
20730;BMP280;10526;50.850;12.928;2023-08-17T20:25:28;98168.97;;;22.24
20730;BMP280;10526;50.850;12.928;2023-08-17T20:29:50;98171.53;;;22.13
20730;BMP280;10526;50.850;12.928;2023-08-17T20:34:12;98179.75;;;22.04
20730;BMP280;10526;50.850;12.928;2023-08-17T20:38:34;98177.19;;;21.94
20730;BMP280;10526;50.850;12.928;2023-08-17T20:42:56;98176.34;;;21.88
20730;BMP280;10526;50.850;12.928;2023-08-17T20:47:18;98166.84;;;21.78
20730;BMP280;10526;50.850;12.928;2023-08-17T20:51:40;98157.59;;;21.70
20730;BMP280;10526;50.850;12.928;2023-08-17T20:56:04;98163.09;;;21.61
20730;BMP280;10526;50.850;12.928;2023-08-17T21:00:26;98163.69;;;21.50
20730;BMP280;10526;50.850;12.928;2023-08-17T21:04:48;98164.09;;;21.43
20730;BMP280;10526;50.850;12.928;2023-08-17T21:09:10;98162.47;;;21.37
20730;BMP280;10526;50.850;12.928;2023-08-17T21:13:32;98158.91;;;21.30
20730;BMP280;10526;50.850;12.928;2023-08-17T21:17:54;98158.63;;;21.28
20730;BMP280;10526;50.850;12.928;2023-08-17T21:22:17;98149.19;;;21.24
20730;BMP280;10526;50.850;12.928;2023-08-17T21:26:38;98161.72;;;21.21
20730;BMP280;10526;50.850;12.928;2023-08-17T21:31:02;98162.66;;;21.18
20730;BMP280;10526;50.850;12.928;2023-08-17T21:35:24;98155.91;;;21.14
20730;BMP280;10526;50.850;12.928;2023-08-17T21:39:46;98163.91;;;21.08
20730;BMP280;10526;50.850;12.928;2023-08-17T21:44:08;98163.53;;;21.00
20730;BMP280;10526;50.850;12.928;2023-08-17T21:48:30;98161.66;;;20.92
20730;BMP280;10526;50.850;12.928;2023-08-17T21:52:52;98153.16;;;20.84
20730;BMP280;10526;50.850;12.928;2023-08-17T21:57:17;98159.06;;;20.74
20730;BMP280;10526;50.850;12.928;2023-08-17T22:01:39;98166.53;;;20.64
20730;BMP280;10526;50.850;12.928;2023-08-17T22:06:02;98172.00;;;20.55
20730;BMP280;10526;50.850;12.928;2023-08-17T22:10:27;98178.22;;;20.46
20730;BMP280;10526;50.850;12.928;2023-08-17T22:14:49;98182.16;;;20.36
20730;BMP280;10526;50.850;12.928;2023-08-17T22:19:11;98184.19;;;20.26
20730;BMP280;10526;50.850;12.928;2023-08-17T22:23:34;98185.72;;;20.18
20730;BMP280;10526;50.850;12.928;2023-08-17T22:27:56;98179.00;;;20.14
20730;BMP280;10526;50.850;12.928;2023-08-17T22:32:18;98175.72;;;20.10
20730;BMP280;10526;50.850;12.928;2023-08-17T22:36:40;98179.59;;;20.08
20730;BMP280;10526;50.850;12.928;2023-08-17T22:41:02;98170.91;;;20.04
20730;BMP280;10526;50.850;12.928;2023-08-17T22:45:24;98176.19;;;19.99
20730;BMP280;10526;50.850;12.928;2023-08-17T22:49:46;98175.63;;;19.95
20730;BMP280;10526;50.850;12.928;2023-08-17T22:54:08;98163.47;;;19.90
20730;BMP280;10526;50.850;12.928;2023-08-17T22:58:30;98161.09;;;19.83
20730;BMP280;10526;50.850;12.928;2023-08-17T23:02:52;98162.59;;;19.75
20730;BMP280;10526;50.850;12.928;2023-08-17T23:07:24;98165.63;;;19.68
20730;BMP280;10526;50.850;12.928;2023-08-17T23:11:49;98163.88;;;19.56
20730;BMP280;10526;50.850;12.928;2023-08-17T23:16:11;98170.75;;;19.48
20730;BMP280;10526;50.850;12.928;2023-08-17T23:20:34;98173.19;;;19.45
20730;BMP280;10526;50.850;12.928;2023-08-17T23:24:56;98180.38;;;19.39
20730;BMP280;10526;50.850;12.928;2023-08-17T23:29:18;98175.28;;;19.32
20730;BMP280;10526;50.850;12.928;2023-08-17T23:33:39;98184.31;;;19.29
20730;BMP280;10526;50.850;12.928;2023-08-17T23:38:02;98185.47;;;19.28
20730;BMP280;10526;50.850;12.928;2023-08-17T23:42:24;98191.81;;;19.25
20730;BMP280;10526;50.850;12.928;2023-08-17T23:46:47;98190.88;;;19.28
20730;BMP280;10526;50.850;12.928;2023-08-17T23:51:09;98198.69;;;19.26
20730;BMP280;10526;50.850;12.928;2023-08-17T23:55:31;98185.19;;;19.26
20730;BMP280;10526;50.850;12.928;2023-08-17T23:59:53;98185.31;;;19.32
